Main page
METAR-TAF:

METAR-TAF

Airports :

Montauk Airport

Montauk, New York, United States

latitude: 41-04-23N, longitude: 071-55-24W, elevation: 7 ft

Current weather observation

The report was made 14 minutes ago, at 02:54 UTC
Wind 6 mph from the North
Temperature 52°F
Humidity 87%
Pressure 29.93 in. Hg

METAR: KMTP 230254Z AUTO 01005KT 11/09 A2993 RMK AO1 SLP135 T01060094 58001

Time: 23:08 (03:08 UTC)


TAF: missing

Weather observations and forecasts of more than 4000 airports (METAR and TAF reports).

The available stations are represented by yellow and red dots on the map.

Hover mouse over dot to see the name of the station.

Then click to see weather observations and forecasts.

To change the map : click on the green buttons with a black cross to zoom in, on the green button with a dash to zoom out, or on the green arrows for adjacent maps.


METAR-TAF: